Time;durP1;ratioP1;P1;durP2;ratioP2;P2;SDS_P1;SDS_P2;PMS_P1;PMS_P2;Temp;Humidity;BMP_temperature;BMP_pressure;BME280_temperature;BME280_humidity;BME280_pressure;Samples;Min_cycle;Max_cycle;Signal;HPM_P1;HPM_P2
2023/07/07 00:00:18;;;;;;;2.30;2.10;;;15.30;99.90;;;;;;5073534;28;20260;-80
2023/07/07 00:02:45;;;;;;;4.67;2.47;;;15.20;99.90;;;;;;5073268;28;20292;-82
2023/07/07 00:05:12;;;;;;;2.42;1.88;;;15.20;99.90;;;;;;5072902;28;20217;-82
2023/07/07 00:07:39;;;;;;;3.50;2.40;;;15.10;99.90;;;;;;5072422;28;20317;-83
2023/07/07 00:10:07;;;;;;;2.70;2.13;;;15.10;99.90;;;;;;5073060;28;20197;-80
2023/07/07 00:12:37;;;;;;;2.33;1.97;;;15.10;99.90;;;;;;5073380;28;20710;-82
2023/07/07 00:15:06;;;;;;;3.20;1.92;;;15.10;99.90;;;;;;5074147;28;20213;-82
2023/07/07 00:17:33;;;;;;;3.65;2.40;;;15.00;99.90;;;;;;5073861;28;20261;-83
2023/07/07 00:20:03;;;;;;;3.03;2.30;;;15.00;99.90;;;;;;5073992;28;20770;-82
2023/07/07 00:22:31;;;;;;;2.97;2.40;;;15.00;99.90;;;;;;5074433;28;20288;-82
2023/07/07 00:24:58;;;;;;;3.27;2.00;;;14.90;99.90;;;;;;5073473;28;20288;-82
2023/07/07 00:27:25;;;;;;;3.50;2.45;;;14.90;99.90;;;;;;5073543;28;20193;-81
2023/07/07 00:29:53;;;;;;;3.23;2.00;;;14.90;99.90;;;;;;5073572;28;20197;-81
2023/07/07 00:32:20;;;;;;;3.47;2.17;;;14.80;99.90;;;;;;5073686;28;20272;-79
2023/07/07 00:34:47;;;;;;;4.93;2.67;;;14.80;99.90;;;;;;5078019;28;20250;-81
2023/07/07 00:37:14;;;;;;;3.33;2.23;;;14.80;99.90;;;;;;5093478;28;20309;-80
2023/07/07 00:39:41;;;;;;;3.90;2.67;;;14.70;99.90;;;;;;5094176;28;20224;-80
2023/07/07 00:42:09;;;;;;;2.50;2.30;;;14.70;99.90;;;;;;5077607;28;20208;-80
2023/07/07 00:45:11;;;;;;;3.17;2.23;;;14.60;99.90;;;;;;5077146;28;20238;-82
2023/07/07 00:47:43;;;;;;;2.87;2.13;;;14.60;99.90;;;;;;5084630;28;20185;-82
2023/07/07 00:50:11;;;;;;;2.60;2.17;;;14.60;99.90;;;;;;5083372;28;20231;-83
2023/07/07 00:52:41;;;;;;;3.10;2.80;;;14.60;99.90;;;;;;5075262;28;20601;-83
2023/07/07 00:55:11;;;;;;;3.83;2.63;;;14.60;99.90;;;;;;5074377;28;20233;-82
2023/07/07 00:57:38;;;;;;;3.17;2.60;;;14.60;99.90;;;;;;5074541;28;20491;-83
2023/07/07 01:00:08;;;;;;;4.27;2.63;;;14.50;99.90;;;;;;5083694;28;20234;-81
2023/07/07 01:02:35;;;;;;;3.53;2.53;;;14.50;99.90;;;;;;5094947;28;20199;-82
2023/07/07 01:05:05;;;;;;;3.63;2.57;;;14.50;99.90;;;;;;5093211;28;20239;-83
2023/07/07 01:07:37;;;;;;;3.90;2.60;;;14.40;99.90;;;;;;5093889;28;20208;-82
2023/07/07 01:10:05;;;;;;;4.07;2.90;;;14.40;99.90;;;;;;5093499;28;20217;-82
2023/07/07 01:12:32;;;;;;;2.87;2.60;;;14.40;99.90;;;;;;5092023;28;20484;-82
2023/07/07 01:15:02;;;;;;;3.27;2.63;;;14.30;99.90;;;;;;5093594;28;20201;-82
2023/07/07 01:17:40;;;;;;;4.13;2.50;;;14.30;99.90;;;;;;5093117;28;20217;-82
2023/07/07 01:20:18;;;;;;;3.60;2.80;;;14.30;99.90;;;;;;5093419;28;20549;-81
2023/07/07 01:23:22;;;;;;;4.90;2.93;;;14.30;99.90;;;;;;5058436;28;20202;-83
2023/07/07 01:26:09;;;;;;;2.60;1.97;;;14.30;99.90;;;;;;5076362;28;20642;-81
2023/07/07 01:29:05;;;;;;;3.17;2.70;;;14.30;99.90;;;;;;5076517;28;20276;-81
2023/07/07 01:31:40;;;;;;;3.70;2.63;;;14.30;99.90;;;;;;5076972;28;20227;-82
2023/07/07 01:34:10;;;;;;;3.53;2.53;;;14.20;99.90;;;;;;5094199;28;20191;-82
2023/07/07 01:36:37;;;;;;;3.70;2.50;;;14.20;99.90;;;;;;5117119;28;20226;-83
2023/07/07 01:39:05;;;;;;;3.67;2.70;;;14.20;99.90;;;;;;5085305;28;20274;-83
2023/07/07 01:41:37;;;;;;;3.77;2.80;;;14.10;99.90;;;;;;5076343;28;20253;-78
2023/07/07 01:44:13;;;;;;;5.30;2.93;;;14.10;99.90;;;;;;5076274;28;20202;-82
2023/07/07 01:46:46;;;;;;;4.53;2.63;;;14.00;99.90;;;;;;5092544;28;20628;-82
2023/07/07 01:49:19;;;;;;;4.63;2.73;;;14.00;99.90;;;;;;5096320;28;20220;-81
2023/07/07 01:51:51;;;;;;;3.17;2.63;;;14.00;99.90;;;;;;5096571;28;20222;-82
2023/07/07 01:54:20;;;;;;;5.03;2.90;;;14.00;99.90;;;;;;5096728;28;20196;-82
2023/07/07 01:56:48;;;;;;;4.23;2.80;;;13.90;99.90;;;;;;5094913;28;20400;-82
2023/07/07 01:59:17;;;;;;;4.83;2.80;;;13.90;99.90;;;;;;5076599;28;20221;-83
2023/07/07 02:01:45;;;;;;;4.33;3.00;;;13.90;99.90;;;;;;5076213;28;20244;-81
2023/07/07 02:04:13;;;;;;;3.67;3.27;;;13.80;99.90;;;;;;5076122;28;20205;-82
2023/07/07 02:06:39;;;;;;;4.57;3.40;;;13.80;99.90;;;;;;5076383;28;20197;-81
2023/07/07 02:09:07;;;;;;;4.13;2.93;;;13.80;99.90;;;;;;5075498;28;20542;-79
2023/07/07 02:11:34;;;;;;;5.40;3.10;;;13.80;99.90;;;;;;5075793;28;20208;-81
2023/07/07 02:14:01;;;;;;;4.63;3.23;;;13.80;99.90;;;;;;5075910;28;20197;-81
2023/07/07 02:16:28;;;;;;;4.10;3.03;;;13.70;99.90;;;;;;5074777;28;20627;-82
2023/07/07 02:18:57;;;;;;;3.33;2.57;;;13.70;99.90;;;;;;5076262;28;20296;-83
2023/07/07 02:21:24;;;;;;;4.77;2.93;;;13.70;99.90;;;;;;5075749;28;20631;-82
2023/07/07 02:23:51;;;;;;;4.50;2.80;;;13.60;99.90;;;;;;5075505;28;20201;-82
2023/07/07 02:26:18;;;;;;;4.33;3.20;;;13.60;99.90;;;;;;5075223;28;20582;-81
2023/07/07 02:28:46;;;;;;;3.20;2.90;;;13.60;99.90;;;;;;5092076;28;20236;-78
2023/07/07 02:31:14;;;;;;;3.60;2.90;;;13.60;99.90;;;;;;5094562;28;20203;-82
2023/07/07 02:33:41;;;;;;;5.07;3.30;;;13.60;99.90;;;;;;5086816;28;20227;-82
2023/07/07 02:36:11;;;;;;;4.43;3.60;;;13.60;99.90;;;;;;5075492;28;20259;-79
2023/07/07 02:38:38;;;;;;;3.97;3.00;;;13.60;99.90;;;;;;5074860;28;20502;-82
2023/07/07 02:41:05;;;;;;;4.47;3.70;;;13.60;99.90;;;;;;5075225;28;20293;-83
2023/07/07 02:43:32;;;;;;;4.83;3.00;;;13.60;99.90;;;;;;5087855;28;20891;-81
2023/07/07 02:45:59;;;;;;;4.03;2.80;;;13.50;99.90;;;;;;5095115;28;20189;-81
2023/07/07 02:48:26;;;;;;;6.50;3.30;;;13.50;99.90;;;;;;5095464;28;20283;-82
2023/07/07 02:50:57;;;;;;;3.90;3.00;;;13.50;99.90;;;;;;5095360;28;20224;-83
2023/07/07 02:53:28;;;;;;;3.60;3.30;;;13.50;99.90;;;;;;5080432;28;20237;-79
2023/07/07 02:55:55;;;;;;;5.07;3.50;;;13.40;99.90;;;;;;5075345;28;20189;-78
2023/07/07 02:58:24;;;;;;;4.37;3.00;;;13.40;99.90;;;;;;5074656;28;20645;-82
2023/07/07 03:00:51;;;;;;;5.67;3.43;;;13.40;99.90;;;;;;5075704;28;20284;-81
2023/07/07 03:03:19;;;;;;;4.23;3.60;;;13.40;99.90;;;;;;5074599;28;20197;-82
2023/07/07 03:05:47;;;;;;;6.17;3.63;;;13.40;99.90;;;;;;5074100;28;20273;-82
2023/07/07 03:08:15;;;;;;;4.87;3.60;;;13.30;99.90;;;;;;5074748;28;20255;-82
2023/07/07 03:10:43;;;;;;;4.97;3.60;;;13.30;99.90;;;;;;5107760;28;20283;-80
2023/07/07 03:13:11;;;;;;;7.20;3.47;;;13.30;99.90;;;;;;5114323;28;20279;-80
2023/07/07 03:15:39;;;;;;;5.47;3.97;;;13.30;99.90;;;;;;5115946;28;20203;-81
2023/07/07 03:18:08;;;;;;;4.80;4.10;;;13.30;99.90;;;;;;5113219;28;20212;-82
2023/07/07 03:20:35;;;;;;;7.13;4.23;;;13.20;99.90;;;;;;5074125;28;20280;-82
2023/07/07 03:23:03;;;;;;;5.53;4.07;;;13.20;99.90;;;;;;5074934;28;20219;-83
2023/07/07 03:25:30;;;;;;;4.90;4.27;;;13.20;99.90;;;;;;5089277;28;20251;-82
2023/07/07 03:27:59;;;;;;;5.10;4.40;;;13.20;99.90;;;;;;5093591;28;20219;-83
2023/07/07 03:30:26;;;;;;;5.70;4.90;;;13.20;99.90;;;;;;5093858;28;20244;-78
2023/07/07 03:32:53;;;;;;;7.23;4.60;;;13.20;99.90;;;;;;5093825;28;20227;-79
2023/07/07 03:35:20;;;;;;;6.23;4.37;;;13.20;99.90;;;;;;5077716;28;20367;-78
2023/07/07 03:37:47;;;;;;;5.93;4.30;;;13.10;99.90;;;;;;5073456;28;20617;-83
2023/07/07 03:40:15;;;;;;;9.47;4.87;;;13.10;99.90;;;;;;5092199;28;20224;-82
2023/07/07 03:42:42;;;;;;;5.60;4.23;;;13.10;99.90;;;;;;5093773;28;20205;-79
2023/07/07 03:45:11;;;;;;;5.53;4.57;;;13.10;99.90;;;;;;5093435;28;20199;-80
2023/07/07 03:47:38;;;;;;;5.83;4.13;;;13.10;99.90;;;;;;5080262;28;20205;-78
2023/07/07 03:50:05;;;;;;;5.43;4.63;;;13.20;99.90;;;;;;5072860;28;20919;-80
2023/07/07 03:52:32;;;;;;;4.93;4.33;;;13.20;99.90;;;;;;5072864;28;20208;-81
2023/07/07 03:55:00;;;;;;;5.90;4.80;;;13.20;99.90;;;;;;5072986;28;20813;-79
2023/07/07 03:57:27;;;;;;;5.70;4.80;;;13.20;99.90;;;;;;5073350;28;20241;-79
2023/07/07 03:59:53;;;;;;;7.33;4.93;;;13.20;99.90;;;;;;5072804;28;20207;-78
2023/07/07 04:02:22;;;;;;;4.93;4.30;;;13.20;99.90;;;;;;5072178;28;20276;-79
2023/07/07 04:04:49;;;;;;;5.80;4.90;;;13.30;99.90;;;;;;5073010;28;20197;-76
2023/07/07 04:07:16;;;;;;;5.43;4.73;;;13.30;99.90;;;;;;5072631;28;20406;-78
2023/07/07 04:09:43;;;;;;;6.53;5.17;;;13.30;99.90;;;;;;5072319;28;20285;-78
2023/07/07 04:12:10;;;;;;;6.23;4.97;;;13.30;99.90;;;;;;5073008;28;20705;-78
2023/07/07 04:14:38;;;;;;;5.97;5.23;;;13.40;99.90;;;;;;5072744;28;20193;-77
2023/07/07 04:17:05;;;;;;;9.13;5.83;;;13.40;99.90;;;;;;5073536;28;20217;-77
2023/07/07 04:19:34;;;;;;;8.70;6.20;;;13.40;99.90;;;;;;5092704;28;20254;-79
2023/07/07 04:22:01;;;;;;;7.07;5.40;;;13.50;99.90;;;;;;5092315;28;20207;-77
2023/07/07 04:24:28;;;;;;;6.13;5.53;;;13.50;99.90;;;;;;5074921;28;20510;-77
2023/07/07 04:26:55;;;;;;;7.20;5.97;;;13.50;99.90;;;;;;5072388;28;20613;-78
2023/07/07 04:29:22;;;;;;;6.50;5.67;;;13.60;99.90;;;;;;5091323;28;20228;-77
2023/07/07 04:31:49;;;;;;;6.43;5.83;;;13.70;99.90;;;;;;5084307;28;20205;-80
2023/07/07 04:34:17;;;;;;;9.90;7.77;;;13.80;99.90;;;;;;5072142;28;20329;-77
2023/07/07 04:36:45;;;;;;;9.00;7.87;;;13.90;99.90;;;;;;5071470;28;20200;-79
2023/07/07 04:39:12;;;;;;;9.40;7.23;;;13.90;99.90;;;;;;5072350;28;20233;-80
2023/07/07 04:41:39;;;;;;;8.30;7.37;;;14.00;99.90;;;;;;5072245;28;20205;-77
2023/07/07 04:44:06;;;;;;;12.47;8.77;;;14.00;99.90;;;;;;5071770;28;20276;-79
2023/07/07 04:46:35;;;;;;;10.10;7.70;;;14.10;99.90;;;;;;5075828;28;20279;-76
2023/07/07 04:49:06;;;;;;;12.00;9.13;;;14.10;99.90;;;;;;5092556;28;20200;-77
2023/07/07 04:51:34;;;;;;;10.73;8.27;;;14.20;99.90;;;;;;5092160;28;20631;-79
2023/07/07 04:54:02;;;;;;;8.93;7.93;;;14.30;99.90;;;;;;5093608;28;20201;-78
2023/07/07 04:56:29;;;;;;;12.47;8.63;;;14.40;99.90;;;;;;5077167;28;20564;-78
2023/07/07 04:58:57;;;;;;;13.90;7.97;;;14.50;99.90;;;;;;5075259;28;20224;-80
2023/07/07 05:01:27;;;;;;;14.20;8.67;;;14.60;99.90;;;;;;5075655;28;20699;-78
2023/07/07 05:03:55;;;;;;;12.87;8.70;;;14.70;99.90;;;;;;5075394;28;20197;-81
2023/07/07 05:06:24;;;;;;;9.60;8.60;;;14.90;99.90;;;;;;5077010;28;20586;-82
2023/07/07 05:08:51;;;;;;;10.07;7.53;;;15.10;99.90;;;;;;5077370;28;20566;-82
2023/07/07 05:11:22;;;;;;;9.52;7.80;;;15.40;99.90;;;;;;5076622;28;20629;-82
2023/07/07 05:13:50;;;;;;;9.57;7.13;;;15.70;99.90;;;;;;5076964;28;20627;-82
2023/07/07 05:16:19;;;;;;;9.97;8.03;;;16.00;99.90;;;;;;5076664;28;20208;-83
2023/07/07 05:18:47;;;;;;;6.97;6.23;;;16.30;99.90;;;;;;5075140;28;20221;-81
2023/07/07 05:21:16;;;;;;;11.43;6.82;;;16.70;99.90;;;;;;5092226;28;20243;-82
2023/07/07 05:23:43;;;;;;;7.25;6.50;;;17.00;99.90;;;;;;5091110;28;20205;-83
2023/07/07 05:26:10;;;;;;;8.52;6.03;;;17.30;99.90;;;;;;5076665;28;20514;-82
2023/07/07 05:28:39;;;;;;;6.80;6.10;;;17.70;99.90;;;;;;5077106;28;20197;-82
2023/07/07 05:31:07;;;;;;;7.63;6.38;;;18.00;99.90;;;;;;5076651;28;20221;-81
2023/07/07 05:33:35;;;;;;;6.88;6.13;;;18.30;99.90;;;;;;5077601;28;20255;-81
2023/07/07 05:36:04;;;;;;;7.93;6.18;;;18.60;99.90;;;;;;5076680;28;20189;-83
2023/07/07 05:38:31;;;;;;;6.22;5.63;;;18.90;99.90;;;;;;5076608;28;20248;-81
2023/07/07 05:40:59;;;;;;;5.70;5.15;;;19.30;99.90;;;;;;5075906;28;20211;-82
2023/07/07 05:43:27;;;;;;;7.13;5.43;;;19.50;99.90;;;;;;5076011;28;20243;-81
2023/07/07 05:46:00;;;;;;;5.35;4.82;;;19.80;1.00;;;;;;5076242;28;20209;-81
2023/07/07 05:48:28;;;;;;;7.78;5.07;;;19.90;1.00;;;;;;5075841;28;20276;-83
2023/07/07 05:50:57;;;;;;;11.80;5.97;;;20.10;1.00;;;;;;5076190;28;20581;-83
2023/07/07 05:53:24;;;;;;;7.32;5.47;;;20.30;1.00;;;;;;5075881;28;20248;-82
2023/07/07 05:55:51;;;;;;;7.82;5.65;;;20.50;1.00;;;;;;5076020;28;20299;-86
2023/07/07 05:58:19;;;;;;;6.90;5.13;;;20.70;1.00;;;;;;5075738;28;20264;-81
2023/07/07 06:00:46;;;;;;;8.00;5.68;;;20.90;99.90;;;;;;5086455;28;20244;-81
2023/07/07 06:03:14;;;;;;;5.25;4.55;;;20.90;99.90;;;;;;5094641;28;20204;-81
2023/07/07 06:05:41;;;;;;;7.05;5.47;;;21.30;99.90;;;;;;5094878;28;20788;-86
2023/07/07 06:08:08;;;;;;;7.05;5.45;;;21.50;1.00;;;;;;5091636;28;20193;-82
2023/07/07 06:10:35;;;;;;;5.28;4.70;;;21.70;1.00;;;;;;5095713;28;20275;-83
2023/07/07 06:13:03;;;;;;;7.68;5.60;;;21.80;99.90;;;;;;5081972;28;20292;-82
2023/07/07 06:15:30;;;;;;;10.68;5.40;;;22.00;99.90;;;;;;5074775;28;20210;-85
2023/07/07 06:17:57;;;;;;;5.45;4.95;;;22.30;1.00;;;;;;5075212;28;20302;-78
2023/07/07 06:20:26;;;;;;;6.25;4.82;;;22.40;1.00;;;;;;5077863;28;20208;-85
2023/07/07 06:22:54;;;;;;;10.48;5.05;;;22.60;1.00;;;;;;5094916;28;20203;-80
2023/07/07 06:25:21;;;;;;;6.65;4.93;;;22.80;28.60;;;;;;5095216;28;20201;-82
2023/07/07 06:27:48;;;;;;;6.72;4.82;;;23.00;1.00;;;;;;5093757;28;20207;-83
2023/07/07 06:30:15;;;;;;;6.47;4.47;;;23.10;1.00;;;;;;5094923;28;20189;-84
2023/07/07 06:32:42;;;;;;;5.50;4.05;;;23.30;1.00;;;;;;5094934;28;20481;-82
2023/07/07 06:35:10;;;;;;;5.47;4.53;;;23.50;1.00;;;;;;5094747;28;20205;-83
2023/07/07 06:37:38;;;;;;;6.10;4.15;;;23.60;1.00;;;;;;5095154;28;20519;-77
2023/07/07 06:40:06;;;;;;;8.43;4.50;;;23.80;1.00;;;;;;5084790;28;20293;-81
2023/07/07 06:42:33;;;;;;;5.88;4.60;;;23.90;1.00;;;;;;5093234;28;20278;-82
2023/07/07 06:44:59;;;;;;;6.70;4.30;;;23.90;99.90;;;;;;5095459;28;20588;-84
2023/07/07 06:47:27;;;;;;;5.13;3.65;;;24.10;14.10;;;;;;5078479;28;20266;-82
2023/07/07 06:49:55;;;;;;;6.25;3.90;;;24.20;99.90;;;;;;5081173;28;20231;-82
2023/07/07 06:52:22;;;;;;;5.97;3.78;;;24.40;1.00;;;;;;5095294;28;20280;-82
2023/07/07 06:54:50;;;;;;;6.60;3.85;;;24.50;1.00;;;;;;5093479;28;20196;-83
2023/07/07 06:57:17;;;;;;;4.97;3.22;;;24.60;99.90;;;;;;5093391;28;20311;-83
2023/07/07 06:59:44;;;;;;;6.80;3.38;;;24.70;1.00;;;;;;5074049;28;20621;-87
2023/07/07 07:02:13;;;;;;;5.93;3.50;;;24.60;99.90;;;;;;5074279;28;20277;-82
2023/07/07 07:04:40;;;;;;;6.70;2.88;;;24.70;1.00;;;;;;5073615;28;20609;-85
2023/07/07 07:07:08;;;;;;;5.10;2.88;;;25.00;1.00;;;;;;5073715;28;20201;-83
2023/07/07 07:09:35;;;;;;;4.13;2.92;;;25.20;1.00;;;;;;5074340;28;20193;-84
2023/07/07 07:12:04;;;;;;;3.28;2.80;;;25.50;99.90;;;;;;5074207;28;20251;-81
2023/07/07 07:14:31;;;;;;;5.60;3.00;;;25.50;1.70;;;;;;5074734;28;20212;-82
2023/07/07 07:16:58;;;;;;;4.60;3.50;;;25.60;1.00;;;;;;5075032;28;20649;-83
2023/07/07 07:19:25;;;;;;;5.03;2.78;;;25.60;90.40;;;;;;5074042;28;20221;-86
2023/07/07 07:21:52;;;;;;;4.80;2.72;;;25.80;99.90;;;;;;5074243;28;20707;-84
2023/07/07 07:24:20;;;;;;;4.07;2.70;;;26.10;99.90;;;;;;5074041;28;20905;-80
2023/07/07 07:26:47;;;;;;;4.05;2.78;;;26.10;99.90;;;;;;5073005;28;20292;-81
2023/07/07 07:29:15;;;;;;;3.95;3.10;;;26.40;99.90;;;;;;5081832;28;20227;-82
2023/07/07 07:31:43;;;;;;;4.90;2.65;;;26.50;99.90;;;;;;5093996;28;20640;-84
2023/07/07 07:34:22;;;;;;;4.75;2.67;;;26.70;99.90;;;;;;5077724;28;20296;-80
2023/07/07 07:36:50;;;;;;;5.68;2.40;;;27.00;99.90;;;;;;5073934;28;20220;-84
2023/07/07 07:39:17;;;;;;;4.88;2.40;;;27.00;99.90;;;;;;5073429;28;20841;-84
2023/07/07 07:41:46;;;;;;;4.85;2.30;;;27.00;99.90;;;;;;5073528;28;20662;-83
2023/07/07 07:44:15;;;;;;;4.07;2.42;;;26.90;99.90;;;;;;5073543;28;20262;-85
2023/07/07 07:46:42;;;;;;;4.65;2.83;;;26.90;99.90;;;;;;5073185;28;20225;-83
2023/07/07 07:49:09;;;;;;;3.55;2.20;;;27.00;99.90;;;;;;5073405;28;20633;-82
2023/07/07 07:51:37;;;;;;;4.00;2.30;;;27.30;99.90;;;;;;5073433;28;20201;-83
2023/07/07 07:54:04;;;;;;;8.02;2.70;;;27.40;99.90;;;;;;5073022;28;20221;-84
2023/07/07 07:56:31;;;;;;;3.58;2.38;;;27.60;99.90;;;;;;5073256;28;20209;-82
2023/07/07 07:58:58;;;;;;;3.63;2.30;;;27.50;99.90;;;;;;5073210;28;20233;-83
2023/07/07 08:01:27;;;;;;;5.05;2.50;;;27.50;99.90;;;;;;5073616;28;20722;-83
2023/07/07 08:03:55;;;;;;;5.45;2.63;;;27.50;99.90;;;;;;5073524;28;20202;-85
2023/07/07 08:06:22;;;;;;;3.35;2.42;;;27.70;99.90;;;;;;5072503;28;20647;-79
2023/07/07 08:08:49;;;;;;;4.47;2.30;;;27.70;99.90;;;;;;5071833;28;20233;-83
2023/07/07 08:11:19;;;;;;;5.20;2.10;;;28.00;99.90;;;;;;5071947;28;20227;-80
2023/07/07 08:13:46;;;;;;;4.10;2.53;;;28.20;99.90;;;;;;5072383;28;20207;-79
2023/07/07 08:16:13;;;;;;;3.72;2.17;;;28.00;99.90;;;;;;5071927;28;20887;-79
2023/07/07 08:18:42;;;;;;;3.55;2.42;;;28.00;99.90;;;;;;5072197;28;20312;-80
2023/07/07 08:21:09;;;;;;;3.95;2.13;;;27.80;99.90;;;;;;5075285;28;20284;-80
2023/07/07 08:23:36;;;;;;;3.97;2.30;;;27.90;99.90;;;;;;5090483;28;20212;-81
2023/07/07 08:26:03;;;;;;;3.53;2.67;;;27.90;99.90;;;;;;5088256;28;20255;-78
2023/07/07 08:28:30;;;;;;;4.03;2.45;;;27.80;99.90;;;;;;5091923;28;20231;-81
2023/07/07 08:30:57;;;;;;;3.47;2.13;;;27.90;99.90;;;;;;5092836;28;20283;-80
2023/07/07 08:33:24;;;;;;;3.67;2.13;;;28.10;99.90;;;;;;5091375;28;20192;-81
2023/07/07 08:35:53;;;;;;;4.60;2.28;;;28.30;99.90;;;;;;5092001;28;20242;-80
2023/07/07 08:38:19;;;;;;;3.88;2.65;;;28.30;99.90;;;;;;5081323;28;20308;-80
2023/07/07 08:40:50;;;;;;;3.92;2.58;;;28.20;99.90;;;;;;5083269;28;20607;-81
2023/07/07 08:43:19;;;;;;;5.70;2.75;;;28.30;99.90;;;;;;5089089;28;20228;-79
2023/07/07 08:45:53;;;;;;;4.63;2.38;;;28.10;99.90;;;;;;5089309;28;20203;-77
2023/07/07 08:48:35;;;;;;;6.05;2.25;;;28.40;99.90;;;;;;5071446;28;20278;-79
2023/07/07 08:51:08;;;;;;;3.67;2.20;;;28.30;99.90;;;;;;5071287;28;20266;-82
2023/07/07 08:53:48;;;;;;;5.72;2.70;;;28.70;99.90;;;;;;5072221;28;20189;-81
2023/07/07 08:56:23;;;;;;;4.25;2.38;;;28.70;99.90;;;;;;5071719;28;20213;-80
2023/07/07 08:58:57;;;;;;;3.78;2.30;;;28.40;99.90;;;;;;5071855;28;20231;-84
2023/07/07 09:01:42;;;;;;;3.92;2.42;;;28.50;99.90;;;;;;5071813;28;20246;-84
2023/07/07 09:04:20;;;;;;;3.97;2.10;;;28.50;99.90;;;;;;5087139;28;20208;-82
2023/07/07 09:07:05;;;;;;;3.92;2.50;;;28.60;99.90;;;;;;5092712;28;20276;-81
2023/07/07 09:09:51;;;;;;;5.18;2.50;;;28.40;99.90;;;;;;5078586;28;20201;-82
2023/07/07 09:12:36;;;;;;;4.57;2.75;;;28.50;99.90;;;;;;5072176;28;20227;-81
2023/07/07 09:15:10;;;;;;;3.33;2.30;;;28.30;99.90;;;;;;5092130;28;20199;-83
2023/07/07 09:17:43;;;;;;;6.03;2.30;;;28.50;99.90;;;;;;5079210;28;20274;-80
2023/07/07 09:20:12;;;;;;;4.00;2.40;;;28.70;99.90;;;;;;5091851;28;20632;-83
2023/07/07 09:22:45;;;;;;;4.95;2.75;;;28.60;99.90;;;;;;5091293;28;20262;-80
2023/07/07 09:25:20;;;;;;;6.45;2.42;;;28.70;99.90;;;;;;5081191;28;20773;-80
2023/07/07 09:27:55;;;;;;;4.38;2.35;;;28.60;99.90;;;;;;5072420;28;20276;-79
2023/07/07 09:30:29;;;;;;;3.95;2.42;;;28.50;99.90;;;;;;5072324;28;20585;-78
2023/07/07 09:32:57;;;;;;;4.55;2.00;;;28.60;99.90;;;;;;5071754;28;20262;-79
2023/07/07 09:35:28;;;;;;;5.43;2.25;;;28.50;99.90;;;;;;5076627;28;20280;-81
2023/07/07 09:38:07;;;;;;;3.17;2.22;;;28.50;99.90;;;;;;5088605;28;20200;-84
2023/07/07 09:40:41;;;;;;;2.75;2.30;;;28.70;99.90;;;;;;5093111;28;20216;-82
2023/07/07 09:43:19;;;;;;;3.70;2.38;;;29.00;99.90;;;;;;5090930;28;20181;-81
2023/07/07 09:45:58;;;;;;;5.28;2.25;;;29.20;99.90;;;;;;5094599;28;20227;-79
2023/07/07 09:48:33;;;;;;;3.72;2.15;;;29.40;99.90;;;;;;5093941;28;20288;-81
2023/07/07 09:51:06;;;;;;;5.15;2.10;;;29.50;99.90;;;;;;5094339;28;20784;-82
2023/07/07 09:53:37;;;;;;;3.75;2.20;;;29.80;99.90;;;;;;5091555;28;20276;-83
2023/07/07 09:56:05;;;;;;;3.03;2.55;;;29.50;99.90;;;;;;5075240;28;20478;-79
2023/07/07 09:58:38;;;;;;;3.42;2.30;;;29.60;99.90;;;;;;5074689;28;20241;-81
2023/07/07 10:01:06;;;;;;;2.65;2.40;;;29.50;99.90;;;;;;5075148;28;20254;-84
2023/07/07 10:03:36;;;;;;;2.97;2.35;;;29.30;99.90;;;;;;5074875;28;20207;-81
2023/07/07 10:06:07;;;;;;;3.22;2.38;;;29.00;99.90;;;;;;5075043;28;20197;-79
2023/07/07 10:08:36;;;;;;;2.53;2.08;;;29.10;99.90;;;;;;5074224;28;20590;-80
2023/07/07 10:11:16;;;;;;;4.28;2.35;;;29.30;99.90;;;;;;5081801;28;20205;-80
2023/07/07 10:13:42;;;;;;;2.80;2.22;;;29.50;99.90;;;;;;5094005;28;20537;-80
2023/07/07 10:16:29;;;;;;;3.28;2.17;;;29.80;99.90;;;;;;5095229;28;20257;-81
2023/07/07 10:18:58;;;;;;;3.88;2.58;;;30.20;99.90;;;;;;5095049;28;20223;-80
2023/07/07 10:21:25;;;;;;;5.03;2.63;;;30.60;99.90;;;;;;5080369;28;20201;-80
2023/07/07 10:23:54;;;;;;;4.20;2.72;;;30.40;99.90;;;;;;5074855;28;20669;-77
2023/07/07 10:26:21;;;;;;;5.35;2.33;;;30.70;99.90;;;;;;5074508;28;20241;-83
2023/07/07 10:28:48;;;;;;;5.00;2.90;;;30.60;99.90;;;;;;5074734;28;20286;-82
2023/07/07 10:31:17;;;;;;;4.15;2.28;;;30.60;99.90;;;;;;5075019;28;20200;-83
2023/07/07 10:33:44;;;;;;;5.38;2.47;;;30.50;99.90;;;;;;5074996;28;20229;-82
2023/07/07 10:36:19;;;;;;;5.70;2.38;;;30.50;99.90;;;;;;5074183;28;20285;-80
2023/07/07 10:38:46;;;;;;;4.72;2.08;;;30.30;99.90;;;;;;5075242;28;20192;-81
2023/07/07 10:41:14;;;;;;;2.38;2.03;;;30.50;99.90;;;;;;5074756;28;20224;-81
2023/07/07 10:43:41;;;;;;;5.03;2.47;;;30.50;99.90;;;;;;5074434;28;20197;-83
2023/07/07 10:46:11;;;;;;;3.40;2.50;;;30.50;99.90;;;;;;5074899;28;20197;-78
2023/07/07 10:48:39;;;;;;;2.65;2.22;;;30.70;99.90;;;;;;5073988;28;20197;-80
2023/07/07 10:51:22;;;;;;;3.45;2.30;;;30.70;99.90;;;;;;5073784;28;20217;-84
2023/07/07 10:53:59;;;;;;;3.85;2.55;;;30.60;99.90;;;;;;5074340;28;20196;-79
2023/07/07 10:56:31;;;;;;;5.15;2.20;;;30.30;99.90;;;;;;5073965;28;20284;-79
2023/07/07 10:59:41;;;;;;;3.80;2.50;;;30.60;99.90;;;;;;5074262;28;20347;-83
2023/07/07 11:02:44;;;;;;;3.13;2.33;;;30.80;99.90;;;;;;5012699;28;20611;-84
2023/07/07 11:05:31;;;;;;;3.20;2.40;;;31.10;99.90;;;;;;5074308;28;20194;-80
2023/07/07 11:08:11;;;;;;;2.72;2.08;;;31.20;99.90;;;;;;5074109;28;20235;-81
2023/07/07 11:11:01;;;;;;;3.70;2.35;;;31.10;99.90;;;;;;5073595;28;20197;-79
2023/07/07 11:13:47;;;;;;;3.00;2.58;;;31.40;99.90;;;;;;5073234;28;20628;-81
2023/07/07 11:16:22;;;;;;;2.95;2.25;;;31.60;99.90;;;;;;5073741;28;20229;-80
2023/07/07 11:19:09;;;;;;;4.10;2.50;;;31.60;99.90;;;;;;5072981;28;20608;-79
2023/07/07 11:21:50;;;;;;;4.68;2.70;;;31.70;99.90;;;;;;5073806;28;20284;-84
2023/07/07 11:24:24;;;;;;;6.63;2.75;;;31.50;99.90;;;;;;5073608;28;20633;-81
2023/07/07 11:27:23;;;;;;;7.28;3.00;;;31.40;99.90;;;;;;5074566;28;20231;-85
2023/07/07 11:29:59;;;;;;;4.03;2.35;;;31.30;99.90;;;;;;5074207;28;20193;-80
2023/07/07 11:32:37;;;;;;;5.00;2.80;;;31.40;99.90;;;;;;5073513;28;20228;-79
2023/07/07 11:35:17;;;;;;;2.63;2.10;;;31.40;99.90;;;;;;5074739;28;20235;-81
2023/07/07 11:37:58;;;;;;;2.63;2.05;;;31.60;99.90;;;;;;5074007;28;20280;-84
2023/07/07 11:40:48;;;;;;;3.20;2.17;;;31.80;99.90;;;;;;5074353;28;20555;-80
2023/07/07 11:43:41;;;;;;;4.28;2.40;;;31.60;99.90;;;;;;5073295;28;20221;-81
2023/07/07 11:46:28;;;;;;;3.88;2.58;;;31.50;99.90;;;;;;5062850;28;20508;-80
2023/07/07 11:49:01;;;;;;;4.05;2.80;;;31.70;99.90;;;;;;5073541;28;20201;-84
2023/07/07 11:51:41;;;;;;;3.78;2.53;;;31.50;99.90;;;;;;5073166;28;20505;-78
2023/07/07 11:54:32;;;;;;;3.75;2.63;;;31.40;99.90;;;;;;5073242;28;20189;-79
2023/07/07 11:57:12;;;;;;;4.38;2.20;;;31.60;99.90;;;;;;5073641;28;20485;-84
2023/07/07 11:59:52;;;;;;;4.00;2.88;;;31.90;99.90;;;;;;5073606;28;20215;-81
2023/07/07 12:02:28;;;;;;;3.10;2.30;;;32.10;99.90;;;;;;5073143;28;20674;-80
2023/07/07 12:04:58;;;;;;;5.85;2.53;;;32.50;99.90;;;;;;5072566;28;20208;-80
2023/07/07 12:07:32;;;;;;;4.55;2.30;;;32.00;99.90;;;;;;5072784;28;20194;-81
2023/07/07 12:10:02;;;;;;;4.18;2.50;;;31.80;99.90;;;;;;5073109;28;20190;-80
2023/07/07 12:12:37;;;;;;;3.47;2.28;;;31.90;99.90;;;;;;5073039;28;20256;-80
2023/07/07 12:15:13;;;;;;;3.33;2.35;;;32.00;99.90;;;;;;5072991;28;20212;-81
2023/07/07 12:17:46;;;;;;;4.47;2.50;;;32.00;99.90;;;;;;5073122;28;20193;-83
2023/07/07 12:20:16;;;;;;;3.90;2.63;;;31.90;99.90;;;;;;5073578;28;20688;-83
2023/07/07 12:22:46;;;;;;;6.53;2.47;;;32.10;99.90;;;;;;5073279;28;20200;-82
2023/07/07 12:25:24;;;;;;;3.17;2.33;;;32.20;99.90;;;;;;5073054;28;20280;-82
2023/07/07 12:27:52;;;;;;;3.83;2.65;;;32.00;99.90;;;;;;5081721;28;20592;-80
2023/07/07 12:30:22;;;;;;;5.60;2.55;;;31.80;99.90;;;;;;5093461;28;20269;-82
2023/07/07 12:32:51;;;;;;;3.55;2.83;;;31.60;99.90;;;;;;5093488;28;20644;-83
2023/07/07 12:35:26;;;;;;;2.80;2.28;;;31.60;99.90;;;;;;5092620;28;20243;-82
2023/07/07 12:37:55;;;;;;;2.25;2.05;;;31.40;99.90;;;;;;5075845;28;20751;-81
2023/07/07 12:40:22;;;;;;;3.70;2.00;;;31.60;99.90;;;;;;5073279;28;20221;-79
2023/07/07 12:42:58;;;;;;;5.05;2.40;;;31.50;99.90;;;;;;5079877;22;20664;-85
2023/07/07 12:45:30;;;;;;;4.18;2.78;;;31.40;99.90;;;;;;5062763;28;20207;-79
2023/07/07 12:48:02;;;;;;;4.38;2.60;;;31.10;99.90;;;;;;5052990;28;20615;-84
2023/07/07 12:50:31;;;;;;;4.40;2.40;;;31.20;99.90;;;;;;5053149;28;20240;-83
2023/07/07 12:53:05;;;;;;;3.67;2.10;;;31.50;99.90;;;;;;5053358;28;20610;-82
2023/07/07 12:55:36;;;;;;;3.55;2.53;;;31.60;99.90;;;;;;5052365;28;20598;-84
2023/07/07 12:58:44;;;;;;;4.63;2.40;;;31.70;99.90;;;;;;5053450;28;20194;-82
2023/07/07 13:01:26;;;;;;;4.03;2.70;;;32.00;99.90;;;;;;5048490;28;20221;-83
2023/07/07 13:04:16;;;;;;;3.33;2.63;;;31.60;99.90;;;;;;5053267;28;20190;-82
2023/07/07 13:06:48;;;;;;;5.60;2.63;;;31.50;99.90;;;;;;5052859;28;20202;-82